8°C Temp
6°C Dewpoint
87% Humidity
Temperature
14 KM/H
9 MPH
8 KTS
190°
Due South

Wind Speed
Clear
Conditions
Pressure 1003 (hPa) - 29.62 (in)
Visibility 6.2 (mi) - 10.0 (km)

Current Conditions
EGGD
Location Bristol International 6km (3.2mi)
Metar :EGGD 191320Z AUTO 19008KT 170V230 9999 NCD 08/06 Q1003
Wed 19th December 13:20 pm

Airport
  Metar Aviation API Data Provided by https://www.checkwx.com/ CSS/SVG/PHP scripts by weather34.com © 2015-2018